Time;durP1;ratioP1;P1;durP2;ratioP2;P2;SDS_P1;SDS_P2;PMS_P1;PMS_P2;Temp;Humidity;BMP_temperature;BMP_pressure;BME280_temperature;BME280_humidity;BME280_pressure;Samples;Min_cycle;Max_cycle;Signal;HPM_P1;HPM_P2
2022/07/05 00:01:55;;;;;;;0.40;0.40;;;24.50;45.70;23.60;101689.00;;;;5027684;28;20112;-67
2022/07/05 00:04:41;;;;;;;0.88;0.50;;;24.40;45.70;23.60;101688.00;;;;5025765;28;20485;-67
2022/07/05 00:07:27;;;;;;;0.75;0.60;;;24.50;45.70;23.60;101687.00;;;;5022417;28;20033;-67
2022/07/05 00:10:13;;;;;;;1.30;0.47;;;24.40;45.70;23.60;101691.00;;;;5027098;28;20038;-66
2022/07/05 00:12:59;;;;;;;0.85;0.32;;;24.40;45.70;23.60;101698.00;;;;5026223;28;20053;-66
2022/07/05 00:15:45;;;;;;;1.60;1.15;;;24.40;45.70;23.60;101689.00;;;;5026662;28;20487;-67
2022/07/05 00:18:31;;;;;;;1.23;0.35;;;24.40;45.70;23.60;101689.00;;;;5024826;28;20041;-67
2022/07/05 00:21:17;;;;;;;0.55;0.30;;;24.40;45.70;23.60;101690.00;;;;5023159;28;20045;-67
2022/07/05 00:24:04;;;;;;;0.60;0.52;;;24.40;45.70;23.60;101682.00;;;;5024035;28;20554;-67
2022/07/05 00:26:50;;;;;;;0.65;0.65;;;24.40;45.70;23.60;101694.00;;;;5028013;28;20510;-67
2022/07/05 00:29:36;;;;;;;2.40;0.60;;;24.40;45.80;23.60;101689.00;;;;5023780;28;20041;-67
2022/07/05 00:32:22;;;;;;;1.80;0.50;;;24.40;45.90;23.60;101695.00;;;;5022038;28;20044;-67
2022/07/05 00:35:08;;;;;;;0.88;0.60;;;24.40;45.90;23.60;101686.00;;;;5024264;28;20115;-67
2022/07/05 00:37:54;;;;;;;0.30;0.22;;;24.40;45.90;23.60;101689.00;;;;5025963;28;20053;-66
2022/07/05 00:40:42;;;;;;;2.05;0.60;;;24.40;45.90;23.50;101691.00;;;;5019120;28;20525;-66
2022/07/05 00:43:28;;;;;;;0.40;0.40;;;24.40;45.90;23.50;101690.00;;;;5024225;28;20046;-67
2022/07/05 00:46:14;;;;;;;0.57;0.45;;;24.40;46.00;23.50;101696.00;;;;5014051;28;20040;-66
2022/07/05 00:49:01;;;;;;;0.30;0.30;;;24.40;46.00;23.50;101691.00;;;;5024575;28;20743;-66
2022/07/05 00:51:47;;;;;;;0.88;0.40;;;24.40;46.00;23.50;101700.00;;;;5024331;28;20049;-66
2022/07/05 00:54:35;;;;;;;1.45;0.52;;;24.40;45.90;23.50;101696.00;;;;5040102;28;20479;-66
2022/07/05 00:57:21;;;;;;;0.68;0.55;;;24.40;45.90;23.50;101697.00;;;;5024338;28;20037;-67
2022/07/05 01:00:08;;;;;;;0.93;0.40;;;24.30;45.80;23.50;101695.00;;;;5026944;28;20045;-66
2022/07/05 01:02:54;;;;;;;2.15;0.50;;;24.30;45.80;23.50;101700.00;;;;5024974;28;20567;-67
2022/07/05 01:05:40;;;;;;;0.63;0.43;;;24.30;45.80;23.50;101700.00;;;;5018265;28;20041;-67
2022/07/05 01:08:26;;;;;;;1.33;0.50;;;24.30;45.80;23.50;101698.00;;;;5023238;28;20545;-67
2022/07/05 01:11:13;;;;;;;2.05;0.40;;;24.40;45.90;23.50;101692.00;;;;5020318;28;20053;-67
2022/07/05 01:14:00;;;;;;;2.07;0.40;;;24.30;45.90;23.50;101691.00;;;;5024087;28;20561;-67
2022/07/05 01:16:47;;;;;;;0.97;0.67;;;24.30;45.80;23.50;101694.00;;;;5024963;28;20442;-67
2022/07/05 01:19:33;;;;;;;0.73;0.45;;;24.20;45.80;23.50;101698.00;;;;5023604;28;20304;-66
2022/07/05 01:22:19;;;;;;;1.20;0.68;;;24.30;45.90;23.40;101694.00;;;;5021170;28;20045;-67
2022/07/05 01:25:06;;;;;;;1.37;0.40;;;24.30;45.90;23.40;101697.00;;;;5024186;28;20045;-66
2022/07/05 01:27:52;;;;;;;0.50;0.30;;;24.30;45.90;23.40;101696.00;;;;5006815;28;20297;-67
2022/07/05 01:30:38;;;;;;;1.38;0.30;;;24.20;45.80;23.40;101685.00;;;;5008002;28;20465;-67
2022/07/05 01:33:29;;;;;;;1.25;0.50;;;24.20;45.80;23.40;101696.00;;;;5024972;28;20046;-67
2022/07/05 01:36:15;;;;;;;1.00;0.57;;;24.20;45.80;23.40;101701.00;;;;5021135;28;20042;-66
2022/07/05 01:39:04;;;;;;;3.67;0.70;;;24.20;45.90;23.40;101690.00;;;;5025771;28;20497;-67
2022/07/05 01:41:50;;;;;;;1.77;0.82;;;24.20;45.90;23.40;101686.00;;;;5018678;28;20038;-67
2022/07/05 01:44:37;;;;;;;1.75;0.32;;;24.20;45.80;23.40;101690.00;;;;5021879;28;20037;-67
2022/07/05 01:47:24;;;;;;;0.50;0.50;;;24.10;45.80;23.40;101693.00;;;;5018628;28;20127;-67
2022/07/05 01:50:11;;;;;;;0.60;0.60;;;24.20;45.80;23.40;101684.00;;;;5024148;28;20099;-67
2022/07/05 01:52:57;;;;;;;0.40;0.35;;;24.20;45.90;23.40;101691.00;;;;5023296;28;20293;-66
2022/07/05 01:55:43;;;;;;;2.85;0.40;;;24.20;45.80;23.30;101697.00;;;;5023159;28;20483;-67
2022/07/05 01:58:30;;;;;;;0.55;0.40;;;24.20;45.90;23.30;101687.00;;;;5035280;28;20289;-67
2022/07/05 02:01:16;;;;;;;0.80;0.40;;;24.20;46.60;23.30;101690.00;;;;5025268;28;20040;-66
2022/07/05 02:04:04;;;;;;;1.52;0.40;;;24.20;45.90;23.30;101683.00;;;;5006794;28;20406;-66
2022/07/05 02:06:50;;;;;;;0.75;0.40;;;24.20;45.90;23.30;101688.00;;;;5012929;28;20465;-66
2022/07/05 02:09:36;;;;;;;0.50;0.40;;;24.20;45.90;23.30;101695.00;;;;5025166;28;20504;-66
2022/07/05 02:12:22;;;;;;;0.57;0.55;;;24.20;45.90;23.30;101693.00;;;;5021647;28;20045;-66
2022/07/05 02:15:09;;;;;;;0.55;0.43;;;24.20;45.90;23.30;101685.00;;;;5025056;28;20053;-67
2022/07/05 02:17:55;;;;;;;0.50;0.40;;;24.10;45.90;23.30;101688.00;;;;5020625;28;20143;-67
2022/07/05 02:20:41;;;;;;;1.02;0.40;;;24.10;45.90;23.30;101685.00;;;;5021331;28;20041;-66
2022/07/05 02:23:27;;;;;;;1.40;0.60;;;24.20;46.00;23.30;101687.00;;;;5024827;28;20069;-67
2022/07/05 02:26:13;;;;;;;1.00;0.40;;;24.10;45.90;23.30;101685.00;;;;5026133;28;20094;-66
2022/07/05 02:28:59;;;;;;;0.28;0.28;;;24.10;46.00;23.30;101691.00;;;;5022462;28;20559;-66
2022/07/05 02:31:45;;;;;;;0.50;0.50;;;24.10;45.90;23.30;101697.00;;;;5020906;28;20038;-66
2022/07/05 02:34:32;;;;;;;0.70;0.50;;;24.10;46.00;23.30;101696.00;;;;5021121;28;20598;-67
2022/07/05 02:37:18;;;;;;;0.45;0.43;;;24.10;46.00;23.30;101693.00;;;;5021799;28;20061;-66
2022/07/05 02:40:05;;;;;;;0.40;0.30;;;24.10;46.00;23.20;101690.00;;;;5028869;28;20426;-66
2022/07/05 02:42:51;;;;;;;0.40;0.35;;;24.00;45.90;23.20;101699.00;;;;5022963;28;20077;-66
2022/07/05 02:45:37;;;;;;;0.50;0.50;;;24.10;46.00;23.20;101692.00;;;;5020754;28;20041;-66
2022/07/05 02:48:23;;;;;;;1.35;0.50;;;24.00;45.90;23.20;101697.00;;;;5020873;28;20036;-66
2022/07/05 02:51:09;;;;;;;0.55;0.55;;;24.00;46.00;23.20;101697.00;;;;5018553;28;20490;-67
2022/07/05 02:53:55;;;;;;;0.50;0.50;;;24.00;46.00;23.20;101697.00;;;;5027514;28;20046;-66
2022/07/05 02:56:41;;;;;;;0.70;0.50;;;24.00;46.00;23.20;101701.00;;;;5016875;28;20438;-67
2022/07/05 02:59:27;;;;;;;0.50;0.50;;;24.00;46.00;23.20;101705.00;;;;5026568;28;20041;-66
2022/07/05 03:02:13;;;;;;;0.30;0.30;;;24.00;46.00;23.20;101707.00;;;;5023814;28;20408;-66
2022/07/05 03:04:59;;;;;;;0.40;0.40;;;23.90;46.00;23.20;101715.00;;;;5022266;28;20048;-67
2022/07/05 03:07:45;;;;;;;0.30;0.30;;;24.00;46.00;23.20;101709.00;;;;5031357;28;20038;-67
2022/07/05 03:10:32;;;;;;;0.50;0.50;;;24.00;46.10;23.20;101712.00;;;;5019887;28;20492;-66
2022/07/05 03:13:18;;;;;;;0.75;0.50;;;23.90;46.00;23.20;101711.00;;;;5025446;28;20132;-66
2022/07/05 03:16:04;;;;;;;0.47;0.47;;;24.00;46.00;23.20;101716.00;;;;5027970;28;20041;-66
2022/07/05 03:18:50;;;;;;;0.80;0.50;;;24.00;46.00;23.10;101715.00;;;;5026670;28;20505;-66
2022/07/05 03:21:36;;;;;;;0.50;0.45;;;24.00;46.10;23.10;101721.00;;;;5032344;28;20099;-66
2022/07/05 03:24:22;;;;;;;2.03;0.70;;;24.00;46.10;23.10;101716.00;;;;5023269;28;20034;-67
2022/07/05 03:27:08;;;;;;;1.15;0.40;;;24.00;46.10;23.10;101715.00;;;;5032808;28;20490;-66
2022/07/05 03:29:55;;;;;;;1.52;0.50;;;23.80;46.70;23.10;101724.00;;;;5030116;28;20041;-66
2022/07/05 03:32:41;;;;;;;0.73;0.60;;;23.90;46.10;23.10;101722.00;;;;5023450;28;20038;-66
2022/07/05 03:35:27;;;;;;;1.48;0.40;;;24.00;46.10;23.10;101714.00;;;;5018980;28;20043;-66
2022/07/05 03:38:13;;;;;;;0.75;0.63;;;23.90;46.10;23.10;101717.00;;;;5041755;28;20049;-66
2022/07/05 03:41:00;;;;;;;2.40;0.52;;;23.90;46.10;23.10;101723.00;;;;5022253;28;20046;-66
2022/07/05 03:43:46;;;;;;;0.40;0.40;;;23.90;46.10;23.10;101723.00;;;;5022070;28;20073;-66
2022/07/05 03:46:32;;;;;;;1.23;0.50;;;23.90;46.10;23.10;101724.00;;;;5020619;28;20479;-67
2022/07/05 03:49:18;;;;;;;0.40;0.32;;;23.80;46.10;23.10;101720.00;;;;5028367;28;20034;-67
2022/07/05 03:52:04;;;;;;;0.30;0.30;;;23.80;46.10;23.10;101726.00;;;;5026520;28;20483;-66
2022/07/05 03:54:50;;;;;;;1.63;0.57;;;23.90;46.20;23.10;101716.00;;;;5021052;28;20041;-66
2022/07/05 03:57:36;;;;;;;1.42;0.50;;;23.90;46.20;23.00;101723.00;;;;5026247;28;20324;-66
2022/07/05 04:00:22;;;;;;;0.47;0.40;;;23.90;46.30;23.00;101729.00;;;;5024212;28;20041;-66
2022/07/05 04:03:08;;;;;;;0.75;0.52;;;23.80;46.00;23.00;101728.00;;;;5021668;28;20045;-66
2022/07/05 04:05:54;;;;;;;0.43;0.40;;;23.90;46.20;23.00;101723.00;;;;5018580;28;20131;-66
2022/07/05 04:08:40;;;;;;;1.05;0.35;;;23.90;46.20;23.00;101727.00;;;;5016548;28;20052;-66
2022/07/05 04:11:26;;;;;;;1.05;0.60;;;23.90;46.30;23.00;101731.00;;;;5028139;28;20391;-66
2022/07/05 04:14:12;;;;;;;1.30;0.50;;;23.80;46.10;23.00;101729.00;;;;5025640;28;20065;-66
2022/07/05 04:16:58;;;;;;;0.60;0.40;;;23.80;46.20;23.00;101723.00;;;;5024340;28;20446;-66
2022/07/05 04:19:44;;;;;;;0.63;0.50;;;23.80;46.20;23.00;101730.00;;;;5022405;28;20049;-67
2022/07/05 04:22:30;;;;;;;0.77;0.55;;;23.90;46.20;23.00;101730.00;;;;5025245;28;20307;-66
2022/07/05 04:25:17;;;;;;;0.93;0.55;;;23.80;46.20;23.00;101723.00;;;;5024968;28;20029;-66
2022/07/05 04:28:03;;;;;;;1.08;0.52;;;23.80;46.10;23.00;101728.00;;;;5025234;28;20037;-66
2022/07/05 04:30:49;;;;;;;1.60;0.40;;;23.80;46.10;23.00;101740.00;;;;5037240;28;20055;-66
2022/07/05 04:33:35;;;;;;;1.48;0.47;;;23.80;46.10;23.00;101732.00;;;;5021902;28;20072;-66
2022/07/05 04:36:21;;;;;;;1.60;0.50;;;23.80;46.10;23.00;101734.00;;;;5022608;28;20039;-66
2022/07/05 04:39:07;;;;;;;0.98;0.50;;;23.70;46.10;23.00;101735.00;;;;5026458;28;20053;-66
2022/07/05 04:41:53;;;;;;;1.02;0.60;;;23.80;46.30;23.00;101739.00;;;;5029557;28;20045;-66
2022/07/05 04:44:40;;;;;;;1.20;0.40;;;23.80;46.20;23.00;101731.00;;;;5021992;28;20041;-66
2022/07/05 04:47:26;;;;;;;2.15;0.60;;;23.80;46.20;23.00;101739.00;;;;5025394;28;20419;-66
2022/07/05 04:50:12;;;;;;;0.60;0.50;;;23.80;46.20;23.00;101740.00;;;;5028852;28;20052;-66
2022/07/05 04:52:58;;;;;;;1.65;0.50;;;23.80;46.30;23.00;101748.00;;;;5024268;28;20091;-66
2022/07/05 04:55:44;;;;;;;1.52;0.47;;;23.80;46.30;23.00;101741.00;;;;5026829;28;20330;-66
2022/07/05 04:58:30;;;;;;;0.85;0.57;;;23.80;46.30;23.00;101750.00;;;;5020266;28;20114;-66
2022/07/05 05:01:16;;;;;;;0.65;0.60;;;23.80;46.30;23.00;101743.00;;;;5024148;28;20041;-67
2022/07/05 05:04:02;;;;;;;0.77;0.60;;;23.80;46.20;23.00;101746.00;;;;5023800;28;20048;-67
2022/07/05 05:06:48;;;;;;;0.90;0.40;;;23.80;46.20;23.00;101754.00;;;;5020590;28;20048;-66
2022/07/05 05:09:34;;;;;;;0.65;0.30;;;23.80;46.20;23.00;101751.00;;;;5021430;28;20049;-66
2022/07/05 05:12:20;;;;;;;0.68;0.55;;;23.80;46.20;23.00;101746.00;;;;5030730;28;20418;-66
2022/07/05 05:15:10;;;;;;;1.25;0.60;;;23.80;46.30;23.00;101753.00;;;;5024428;28;20041;-66
2022/07/05 05:17:56;;;;;;;1.85;0.50;;;23.80;46.40;23.00;101751.00;;;;5025409;28;20407;-67
2022/07/05 05:20:42;;;;;;;0.63;0.43;;;23.80;46.30;23.00;101755.00;;;;5026052;28;20053;-66
2022/07/05 05:23:28;;;;;;;0.57;0.40;;;23.80;46.30;23.00;101753.00;;;;5020005;28;20040;-67
2022/07/05 05:26:14;;;;;;;1.33;0.60;;;23.80;46.40;23.00;101759.00;;;;5025093;28;20055;-66
2022/07/05 05:29:01;;;;;;;0.63;0.40;;;23.80;46.30;23.00;101758.00;;;;5023245;28;20063;-66
2022/07/05 05:31:47;;;;;;;0.98;0.68;;;23.80;46.30;23.00;101769.00;;;;5023663;28;20123;-67
2022/07/05 05:34:33;;;;;;;0.50;0.50;;;23.80;46.30;23.00;101761.00;;;;5038739;28;20041;-66
2022/07/05 05:37:19;;;;;;;1.35;0.70;;;23.80;46.40;23.00;101760.00;;;;5019047;28;20049;-66
2022/07/05 05:40:06;;;;;;;1.15;0.50;;;23.80;46.40;23.00;101755.00;;;;5017083;28;20053;-66
2022/07/05 05:42:52;;;;;;;0.70;0.65;;;23.80;46.40;23.00;101768.00;;;;5021791;28;20407;-67
2022/07/05 05:45:39;;;;;;;1.50;0.50;;;23.80;46.40;23.00;101760.00;;;;5022193;28;20043;-66
2022/07/05 05:48:25;;;;;;;0.63;0.63;;;23.90;46.50;23.00;101770.00;;;;5022003;28;20041;-66
2022/07/05 05:51:11;;;;;;;2.13;0.70;;;23.90;46.40;23.00;101766.00;;;;5019009;28;20049;-66
2022/07/05 05:53:57;;;;;;;0.90;0.73;;;23.90;46.40;23.00;101766.00;;;;5019826;28;20053;-66
2022/07/05 05:56:43;;;;;;;0.93;0.55;;;23.90;46.50;23.00;101771.00;;;;5022691;28;20060;-66
2022/07/05 05:59:29;;;;;;;1.95;0.80;;;23.90;46.50;23.00;101791.00;;;;5019561;28;20049;-66
2022/07/05 06:02:15;;;;;;;0.85;0.70;;;23.90;46.50;23.00;101782.00;;;;5019910;28;20064;-66
2022/07/05 06:05:01;;;;;;;1.42;0.80;;;24.00;46.50;23.00;101796.00;;;;5020145;28;20088;-66
2022/07/05 06:07:52;;;;;;;1.67;0.70;;;24.00;46.70;23.00;101786.00;;;;5020699;28;20048;-66
2022/07/05 06:10:38;;;;;;;0.90;0.50;;;23.90;46.60;23.00;101788.00;;;;5035524;28;20069;-67
2022/07/05 06:13:24;;;;;;;1.77;0.70;;;23.90;46.60;23.10;101787.00;;;;5021986;28;20042;-67
2022/07/05 06:16:10;;;;;;;1.00;0.60;;;24.00;46.60;23.10;101792.00;;;;5023878;28;20045;-66
2022/07/05 06:18:56;;;;;;;1.83;0.80;;;23.90;46.60;23.10;101793.00;;;;5024335;28;20410;-66
2022/07/05 06:21:42;;;;;;;1.00;0.70;;;23.90;46.60;23.10;101791.00;;;;5023436;28;20045;-67
2022/07/05 06:24:29;;;;;;;0.63;0.63;;;24.00;46.60;23.10;101789.00;;;;5017453;28;20037;-66
2022/07/05 06:27:15;;;;;;;1.10;0.60;;;24.00;46.60;23.10;101794.00;;;;5018395;28;20471;-66
2022/07/05 06:30:01;;;;;;;0.50;0.50;;;24.00;46.50;23.10;101797.00;;;;5026535;28;20060;-66
2022/07/05 06:32:47;;;;;;;0.75;0.60;;;24.00;46.60;23.10;101792.00;;;;5020131;28;20494;-66
2022/07/05 06:35:34;;;;;;;1.80;0.80;;;24.00;46.60;23.10;101799.00;;;;5023326;28;20038;-66
2022/07/05 06:38:20;;;;;;;0.80;0.80;;;24.00;46.70;23.10;101799.00;;;;5021956;28;20082;-66
2022/07/05 06:41:06;;;;;;;2.22;0.68;;;24.00;46.60;23.10;101794.00;;;;5025300;28;20046;-66
2022/07/05 06:43:52;;;;;;;2.30;0.77;;;24.00;46.60;23.10;101792.00;;;;5017771;28;20099;-66
2022/07/05 06:46:38;;;;;;;1.55;0.60;;;24.00;46.60;23.10;101800.00;;;;5017981;28;20277;-66
2022/07/05 06:49:24;;;;;;;0.73;0.52;;;24.00;46.60;23.10;101805.00;;;;5022600;28;20041;-66
2022/07/05 06:52:10;;;;;;;1.02;0.80;;;24.00;46.50;23.10;101798.00;;;;5023044;28;20037;-66
2022/07/05 06:54:56;;;;;;;2.78;0.98;;;24.10;46.60;23.10;101796.00;;;;5028180;28;20037;-67
2022/07/05 06:57:43;;;;;;;0.60;0.60;;;24.10;46.60;23.20;101799.00;;;;5022842;28;20041;-66
2022/07/05 07:00:29;;;;;;;2.25;0.45;;;24.00;46.60;23.10;101799.00;;;;5021062;28;20042;-66
2022/07/05 07:03:16;;;;;;;0.90;0.60;;;24.00;46.50;23.10;101801.00;;;;5019063;28;20478;-66
2022/07/05 07:06:02;;;;;;;2.78;0.60;;;24.00;46.50;23.20;101808.00;;;;5021473;28;20103;-66
2022/07/05 07:11:53;;;;;;;2.05;0.55;;;24.10;46.40;23.10;101809.00;;;;5013589;28;20148;-66
2022/07/05 07:14:39;;;;;;;1.67;0.70;;;24.10;46.50;23.10;101813.00;;;;5022259;28;20041;-67
2022/07/05 07:17:25;;;;;;;3.00;0.80;;;24.10;46.50;23.20;101805.00;;;;5025262;28;20037;-66
2022/07/05 07:20:11;;;;;;;0.63;0.52;;;24.10;46.50;23.20;101801.00;;;;5023245;28;20044;-66
2022/07/05 07:22:57;;;;;;;1.33;0.52;;;24.10;46.40;23.20;101803.00;;;;5020194;28;20256;-66
2022/07/05 07:25:43;;;;;;;0.98;0.63;;;24.10;46.40;23.20;101820.00;;;;5020567;28;20041;-66
2022/07/05 07:28:30;;;;;;;3.42;0.55;;;24.10;46.40;23.20;101814.00;;;;5020639;28;20037;-66
2022/07/05 07:31:16;;;;;;;0.80;0.60;;;24.10;46.40;23.20;101813.00;;;;5023994;28;20449;-66
2022/07/05 07:34:02;;;;;;;0.65;0.57;;;24.10;46.30;23.20;101815.00;;;;5021292;28;20053;-66
2022/07/05 07:36:48;;;;;;;1.65;0.80;;;24.10;46.40;23.20;101809.00;;;;5025416;28;20403;-66
2022/07/05 07:39:34;;;;;;;4.90;0.70;;;24.10;46.30;23.20;101808.00;;;;5023691;28;20036;-66
2022/07/05 07:42:20;;;;;;;0.85;0.63;;;24.10;47.00;23.20;101815.00;;;;5024049;28;20049;-67
2022/07/05 07:45:07;;;;;;;0.93;0.50;;;24.10;46.10;23.20;101811.00;;;;5032503;28;20040;-66
2022/07/05 07:47:53;;;;;;;0.80;0.80;;;24.10;46.30;23.20;101823.00;;;;5021874;28;20124;-67
2022/07/05 07:50:39;;;;;;;0.85;0.68;;;24.10;46.20;23.20;101813.00;;;;5055569;28;20513;-66
2022/07/05 07:53:26;;;;;;;1.90;0.50;;;24.10;46.10;23.20;101814.00;;;;5025679;28;20073;-66
2022/07/05 07:56:12;;;;;;;1.42;1.02;;;24.10;46.40;23.20;101808.00;;;;5030837;28;20045;-66
2022/07/05 07:58:58;;;;;;;0.80;0.57;;;24.10;46.10;23.20;101806.00;;;;5030181;28;20049;-66
2022/07/05 08:01:44;;;;;;;1.35;0.70;;;24.10;46.10;23.20;101803.00;;;;5013021;28;20049;-66
2022/07/05 08:04:30;;;;;;;1.30;0.47;;;24.20;46.10;23.20;101809.00;;;;5020811;28;20384;-66
2022/07/05 08:07:17;;;;;;;0.65;0.65;;;24.20;46.10;23.20;101803.00;;;;5027958;28;20098;-66
2022/07/05 08:10:05;;;;;;;1.40;0.55;;;24.20;46.00;23.20;101814.00;;;;5028537;28;20047;-66
2022/07/05 08:12:51;;;;;;;;;;;24.20;46.10;23.20;101809.00;;;;5024524;28;20128;-66
2022/07/05 08:15:37;;;;;;;1.00;0.60;;;24.20;46.20;23.20;101810.00;;;;5022579;28;20362;-66
2022/07/05 08:21:39;;;;;;;2.25;0.70;;;24.20;45.40;23.20;101815.00;;;;5030470;28;20044;-66
2022/07/05 08:24:25;;;;;;;;;;;24.20;45.40;23.10;101806.00;;;;5023725;28;20041;-66
2022/07/05 08:27:11;;;;;;;1.13;0.60;;;24.20;45.70;23.20;101807.00;;;;5031468;28;19913;-67
2022/07/05 08:29:58;;;;;;;2.10;0.50;;;24.20;45.30;23.20;101807.00;;;;5024532;28;20423;-66
2022/07/05 08:32:44;;;;;;;1.08;0.57;;;24.20;45.40;23.20;101806.00;;;;5025955;28;20044;-66
2022/07/05 08:35:30;;;;;;;0.98;0.30;;;24.20;45.40;23.20;101802.00;;;;5026830;28;20553;-66
2022/07/05 08:38:16;;;;;;;1.10;0.50;;;24.20;45.60;23.20;101807.00;;;;5021162;28;20037;-66
2022/07/05 08:41:02;;;;;;;1.25;0.40;;;24.20;45.30;23.20;101807.00;;;;5029026;28;20050;-66
2022/07/05 08:43:49;;;;;;;0.70;0.47;;;24.20;45.70;23.20;101815.00;;;;5019052;28;20056;-66
2022/07/05 08:46:38;;;;;;;1.35;0.50;;;24.20;45.80;23.20;101807.00;;;;5021525;28;20040;-66
2022/07/05 08:49:27;;;;;;;0.73;0.40;;;24.20;45.60;23.20;101814.00;;;;5023605;28;20029;-66
2022/07/05 08:52:13;;;;;;;0.52;0.40;;;24.20;45.50;23.20;101807.00;;;;5024043;28;20052;-66
2022/07/05 08:54:59;;;;;;;1.95;0.50;;;24.20;45.50;23.20;101807.00;;;;5025940;28;20045;-66
2022/07/05 08:57:45;;;;;;;0.70;0.38;;;24.20;45.40;23.20;101807.00;;;;5027212;28;20123;-66
2022/07/05 09:00:31;;;;;;;2.42;0.70;;;24.20;45.30;23.20;101822.00;;;;5018507;28;20399;-66
2022/07/05 09:03:17;;;;;;;0.60;0.50;;;24.20;45.00;23.20;101817.00;;;;5025921;28;20036;-66
2022/07/05 09:06:04;;;;;;;3.28;0.65;;;24.20;45.10;23.20;101813.00;;;;5025143;28;20061;-66
2022/07/05 09:08:51;;;;;;;0.35;0.35;;;24.20;44.50;23.20;101822.00;;;;5023114;28;20044;-66
2022/07/05 09:11:39;;;;;;;2.00;0.80;;;24.30;44.40;23.20;101809.00;;;;5025565;28;20048;-66
2022/07/05 09:14:25;;;;;;;0.98;0.38;;;24.20;44.50;23.20;101814.00;;;;5023372;28;20042;-66
2022/07/05 09:17:11;;;;;;;1.42;0.47;;;24.20;44.40;23.20;101812.00;;;;5024718;28;20099;-67
2022/07/05 09:20:17;;;;;;;0.70;0.60;;;24.30;44.60;23.20;101819.00;;;;5037553;28;20053;-67
2022/07/05 09:23:03;;;;;;;1.42;0.50;;;24.20;44.90;23.20;101821.00;;;;5041294;28;20070;-66
2022/07/05 09:25:49;;;;;;;2.90;0.60;;;24.20;44.90;23.30;101826.00;;;;5024180;28;20513;-66
2022/07/05 09:28:36;;;;;;;1.05;0.52;;;24.30;45.20;23.30;101823.00;;;;4991150;28;20038;-66
2022/07/05 09:31:36;;;;;;;1.20;0.63;;;24.20;44.70;23.20;101822.00;;;;5032583;28;20396;-66
2022/07/05 09:34:22;;;;;;;1.48;0.77;;;24.30;44.30;23.30;101823.00;;;;5022708;28;20041;-66
2022/07/05 09:37:08;;;;;;;1.52;0.32;;;24.40;44.30;23.20;101818.00;;;;5019684;28;20049;-66
2022/07/05 09:39:54;;;;;;;0.85;0.60;;;24.30;43.80;23.20;101814.00;;;;5020472;28;20046;-66
2022/07/05 09:42:40;;;;;;;0.50;0.50;;;24.30;43.80;23.20;101823.00;;;;5020644;28;20042;-66
2022/07/05 09:45:26;;;;;;;1.65;0.52;;;24.20;43.60;23.20;101817.00;;;;5036572;28;20053;-66
2022/07/05 09:48:13;;;;;;;0.80;0.50;;;24.20;43.50;23.20;101811.00;;;;5022157;28;20039;-66
2022/07/05 09:51:05;;;;;;;1.33;0.57;;;24.30;43.60;23.20;101818.00;;;;5024691;28;20506;-66
2022/07/05 09:53:56;;;;;;;1.02;0.50;;;24.30;43.70;23.20;101809.00;;;;5023052;28;20047;-66
2022/07/05 09:56:46;;;;;;;0.85;0.40;;;24.30;43.80;23.30;101813.00;;;;5019111;28;20089;-66
2022/07/05 09:59:33;;;;;;;1.65;0.57;;;24.30;44.00;23.20;101814.00;;;;5019408;28;20041;-67
2022/07/05 10:02:42;;;;;;;1.05;0.40;;;24.30;43.70;23.20;101829.00;;;;5019609;28;20474;-67
2022/07/05 10:05:32;;;;;;;0.70;0.40;;;24.30;43.80;23.30;101826.00;;;;5033240;28;20116;-67
2022/07/05 10:08:18;;;;;;;2.25;0.50;;;24.30;43.20;23.30;101824.00;;;;5019987;28;20076;-67
2022/07/05 10:11:04;;;;;;;0.98;0.60;;;24.30;43.30;23.30;101823.00;;;;5022272;28;20648;-67
2022/07/05 10:13:51;;;;;;;1.30;0.50;;;24.30;43.10;23.30;101823.00;;;;5006237;28;20048;-66
2022/07/05 10:16:37;;;;;;;0.75;0.40;;;24.40;43.30;23.30;101828.00;;;;5025303;28;20045;-67
2022/07/05 10:19:24;;;;;;;1.00;0.50;;;24.40;43.80;23.30;101823.00;;;;5016792;28;20045;-66
2022/07/05 10:22:10;;;;;;;0.75;0.47;;;24.40;43.70;23.30;101815.00;;;;5013338;28;20040;-66
2022/07/05 10:24:56;;;;;;;0.47;0.40;;;24.30;43.80;23.30;101830.00;;;;5019792;28;20083;-66
2022/07/05 10:27:42;;;;;;;2.67;0.43;;;24.30;43.60;23.30;101819.00;;;;5019899;28;20117;-66
2022/07/05 10:30:28;;;;;;;0.57;0.43;;;24.40;44.10;23.30;101825.00;;;;5027669;28;20048;-66
2022/07/05 10:33:15;;;;;;;0.30;0.30;;;24.40;43.80;23.30;101829.00;;;;5038444;28;20074;-66
2022/07/05 10:36:03;;;;;;;0.80;0.40;;;24.40;43.40;23.30;101834.00;;;;5013613;28;20475;-66
2022/07/05 10:38:49;;;;;;;;;;;24.40;43.60;23.30;101825.00;;;;5017859;28;20510;-66
2022/07/05 10:41:35;;;;;;;0.88;0.50;;;24.40;43.80;23.30;101828.00;;;;5007824;28;19925;-66
2022/07/05 10:44:34;;;;;;;0.30;0.30;;;24.40;43.10;23.30;101827.00;;;;5023948;28;20171;-67
2022/07/05 10:47:20;;;;;;;0.52;0.40;;;24.40;43.20;23.30;101826.00;;;;5032742;28;20130;-66
2022/07/05 10:50:07;;;;;;;1.75;0.47;;;24.40;43.10;23.30;101814.00;;;;5025867;28;20038;-66
2022/07/05 10:53:02;;;;;;;1.75;0.40;;;24.40;43.20;23.30;101815.00;;;;5014720;28;20484;-66
2022/07/05 10:55:50;;;;;;;0.98;0.57;;;24.40;43.30;23.30;101818.00;;;;5023127;28;20046;-66
2022/07/05 10:58:42;;;;;;;0.40;0.40;;;24.40;43.30;23.30;101815.00;;;;5020400;28;20037;-66
2022/07/05 11:01:33;;;;;;;0.95;0.50;;;24.40;43.20;23.30;101811.00;;;;5019406;28;20168;-66
2022/07/05 11:04:26;;;;;;;2.10;0.40;;;24.40;43.00;23.30;101806.00;;;;5007459;28;20550;-67
2022/07/05 11:07:12;;;;;;;0.88;0.60;;;24.40;43.10;23.30;101809.00;;;;5021909;28;20563;-66
2022/07/05 11:09:59;;;;;;;2.10;0.40;;;24.40;42.80;23.30;101802.00;;;;5023262;28;20038;-66
2022/07/05 11:12:45;;;;;;;0.40;0.40;;;24.40;43.20;23.30;101812.00;;;;5020501;28;20038;-66
2022/07/05 11:15:31;;;;;;;0.43;0.43;;;24.40;43.50;23.30;101811.00;;;;5016920;28;20072;-66
2022/07/05 11:18:25;;;;;;;1.20;0.32;;;24.40;43.50;23.30;101806.00;;;;5017738;28;20045;-67
2022/07/05 11:21:22;;;;;;;2.05;0.60;;;24.40;43.30;23.30;101808.00;;;;5014899;28;20033;-66
2022/07/05 11:24:25;;;;;;;1.45;0.57;;;24.40;43.20;23.30;101797.00;;;;5026617;28;20539;-66
2022/07/05 11:27:11;;;;;;;1.05;0.50;;;24.40;42.80;23.30;101803.00;;;;5035335;28;20042;-66
2022/07/05 11:29:58;;;;;;;0.57;0.40;;;24.40;43.10;23.30;101805.00;;;;5036451;28;20179;-66
2022/07/05 11:32:44;;;;;;;2.28;0.40;;;24.40;43.00;23.40;101795.00;;;;5025715;28;20048;-66
2022/07/05 11:35:34;;;;;;;0.52;0.40;;;24.50;42.80;23.40;101799.00;;;;5037485;28;20060;-66
2022/07/05 11:38:21;;;;;;;0.80;0.30;;;24.50;42.50;23.40;101791.00;;;;5040734;28;20407;-66
2022/07/05 11:41:14;;;;;;;2.42;0.50;;;24.50;42.40;23.40;101784.00;;;;5030847;28;20155;-66
2022/07/05 11:44:00;;;;;;;0.60;0.40;;;24.50;42.10;23.40;101777.00;;;;5025819;28;20044;-67
2022/07/05 11:46:46;;;;;;;0.40;0.40;;;24.60;42.00;23.40;101777.00;;;;5027653;28;20034;-72
2022/07/05 11:49:32;;;;;;;1.70;0.52;;;24.50;41.90;23.40;101775.00;;;;5022894;28;20388;-72
2022/07/05 11:52:24;;;;;;;1.83;0.57;;;24.50;41.50;23.40;101772.00;;;;5022761;28;20042;-72
2022/07/05 11:55:10;;;;;;;1.50;0.43;;;24.50;41.90;23.40;101767.00;;;;5012510;28;20045;-72
2022/07/05 11:57:57;;;;;;;0.35;0.35;;;24.50;41.50;23.40;101769.00;;;;5026155;28;20060;-72
2022/07/05 12:00:44;;;;;;;0.95;0.30;;;24.50;41.40;23.40;101766.00;;;;5021128;28;20100;-72
2022/07/05 12:03:30;;;;;;;1.20;0.80;;;24.50;41.70;23.40;101768.00;;;;5022555;28;20057;-72
2022/07/05 12:06:17;;;;;;;1.10;0.80;;;24.50;41.40;23.40;101761.00;;;;5019675;28;20029;-72
2022/07/05 12:09:04;;;;;;;22.42;1.35;;;24.50;41.20;23.40;101767.00;;;;5024203;28;20132;-72
2022/07/05 12:14:56;;;;;;;0.50;0.50;;;24.50;41.20;23.40;101756.00;;;;5023437;28;20475;-72
2022/07/05 12:17:44;;;;;;;1.23;0.70;;;24.50;41.20;23.40;101761.00;;;;5021641;28;20112;-72
2022/07/05 12:20:32;;;;;;;1.10;0.85;;;24.50;41.00;23.40;101762.00;;;;5048274;28;20041;-72
2022/07/05 12:23:26;;;;;;;1.13;0.70;;;24.50;41.00;23.40;101753.00;;;;5023582;28;20116;-73